Time;durP1;ratioP1;P1;durP2;ratioP2;P2;SDS_P1;SDS_P2;PMS_P1;PMS_P2;Temp;Humidity;BMP_temperature;BMP_pressure;BME280_temperature;BME280_humidity;BME280_pressure;Samples;Min_cycle;Max_cycle;Signal;HPM_P1;HPM_P2
2022/03/25 00:01:15;;;;;;;97.50;67.20;;;5.60;99.90;;;;;;5102081;28;20048;-66
2022/03/25 00:03:41;;;;;;;92.22;65.13;;;5.60;99.90;;;;;;5099199;28;20044;-66
2022/03/25 00:06:07;;;;;;;91.13;66.25;;;5.60;99.90;;;;;;5102518;28;20516;-66
2022/03/25 00:08:33;;;;;;;92.43;66.97;;;5.60;99.90;;;;;;5105873;27;20159;-66
2022/03/25 00:10:58;;;;;;;86.38;62.22;;;5.60;99.90;;;;;;5102339;28;20533;-66
2022/03/25 00:13:24;;;;;;;90.93;65.32;;;5.50;99.90;;;;;;5115154;27;20048;-66
2022/03/25 00:15:50;;;;;;;83.15;58.70;;;5.60;99.90;;;;;;5131809;27;20043;-66
2022/03/25 00:18:15;;;;;;;86.65;61.22;;;5.50;99.90;;;;;;5100086;28;20066;-66
2022/03/25 00:20:41;;;;;;;97.93;67.10;;;5.50;99.90;;;;;;5104795;28;20078;-66
2022/03/25 00:23:07;;;;;;;90.80;61.35;;;5.50;99.90;;;;;;5132403;27;20044;-66
2022/03/25 00:25:34;;;;;;;90.63;66.55;;;5.50;99.90;;;;;;5099123;27;20039;-65
2022/03/25 00:27:59;;;;;;;84.57;61.55;;;5.40;99.90;;;;;;5097423;28;20071;-66
2022/03/25 00:30:25;;;;;;;80.15;59.47;;;5.40;99.90;;;;;;5101775;28;20084;-66
2022/03/25 00:32:51;;;;;;;73.63;54.45;;;5.40;99.90;;;;;;5128739;27;20043;-66
2022/03/25 00:35:17;;;;;;;67.65;52.85;;;5.40;99.90;;;;;;5100239;28;20036;-66
2022/03/25 00:37:43;;;;;;;66.30;49.97;;;5.30;99.90;;;;;;5100969;27;20039;-66
2022/03/25 00:40:11;;;;;;;65.88;48.60;;;5.30;99.90;;;;;;5099711;28;20048;-66
2022/03/25 00:42:37;;;;;;;64.97;49.28;;;5.30;99.90;;;;;;5099911;28;20135;-66
2022/03/25 00:45:04;;;;;;;75.80;53.60;;;5.30;99.90;;;;;;5102610;27;20127;-66
2022/03/25 00:47:30;;;;;;;67.63;53.28;;;5.30;99.90;;;;;;5098873;28;20716;-67
2022/03/25 00:49:56;;;;;;;69.30;54.10;;;5.20;99.90;;;;;;5096853;28;20096;-66
2022/03/25 00:52:22;;;;;;;65.00;50.65;;;5.20;99.90;;;;;;5100447;27;20039;-66
2022/03/25 00:54:50;;;;;;;66.43;51.33;;;5.20;99.90;;;;;;5101986;28;20044;-66
2022/03/25 00:57:19;;;;;;;65.10;48.30;;;5.10;99.90;;;;;;5102232;28;20075;-66
2022/03/25 00:59:45;;;;;;;62.63;48.60;;;5.10;99.90;;;;;;5129962;27;20092;-66
2022/03/25 01:02:11;;;;;;;75.38;49.92;;;5.00;99.90;;;;;;5098147;28;20074;-66
2022/03/25 01:04:37;;;;;;;58.30;44.65;;;5.00;99.90;;;;;;5096443;28;20055;-66
2022/03/25 01:07:03;;;;;;;57.08;45.38;;;5.00;99.90;;;;;;5098882;27;20046;-66
2022/03/25 01:09:29;;;;;;;62.08;47.38;;;5.00;99.90;;;;;;5102078;28;20062;-66
2022/03/25 01:11:55;;;;;;;56.63;43.20;;;5.00;99.90;;;;;;5128842;27;20334;-66
2022/03/25 01:14:21;;;;;;;55.03;43.92;;;5.00;99.90;;;;;;5099674;28;20554;-66
2022/03/25 01:16:47;;;;;;;56.28;44.05;;;4.90;99.90;;;;;;5100975;28;20098;-66
2022/03/25 01:19:12;;;;;;;59.30;46.35;;;4.90;99.90;;;;;;5098482;28;20065;-66
2022/03/25 01:21:38;;;;;;;58.35;45.97;;;4.90;99.90;;;;;;5098393;28;20048;-65
2022/03/25 01:24:04;;;;;;;60.92;43.22;;;4.90;99.90;;;;;;5097965;28;20028;-66
2022/03/25 01:26:30;;;;;;;80.00;48.92;;;4.80;99.90;;;;;;5099476;28;20497;-65
2022/03/25 01:28:56;;;;;;;53.38;46.53;;;4.80;99.90;;;;;;5098269;28;20095;-66
2022/03/25 01:31:22;;;;;;;48.67;40.22;;;4.70;99.90;;;;;;5101634;28;20054;-66
2022/03/25 01:33:48;;;;;;;66.82;40.08;;;4.70;99.90;;;;;;5103502;28;20115;-66
2022/03/25 01:36:13;;;;;;;56.30;38.65;;;4.60;99.90;;;;;;5097697;28;20040;-65
2022/03/25 01:38:39;;;;;;;82.68;39.05;;;4.50;99.90;;;;;;5099146;27;20031;-66
2022/03/25 01:41:07;;;;;;;51.97;40.72;;;4.60;99.90;;;;;;5097920;28;20043;-66
2022/03/25 01:43:33;;;;;;;102.63;45.10;;;4.50;99.90;;;;;;5099302;27;20038;-66
2022/03/25 01:45:58;;;;;;;58.72;43.88;;;4.50;99.90;;;;;;5098806;28;20402;-66
2022/03/25 01:48:24;;;;;;;62.30;42.33;;;4.50;99.90;;;;;;5097413;28;20036;-66
2022/03/25 01:50:50;;;;;;;59.78;44.30;;;4.40;99.90;;;;;;5132277;27;20051;-66
2022/03/25 01:53:17;;;;;;;57.92;45.00;;;4.30;99.90;;;;;;5096253;28;20122;-66
2022/03/25 01:56:05;;;;;;;66.03;45.60;;;4.30;99.90;;;;;;5103056;28;20047;-66
2022/03/25 01:58:32;;;;;;;69.85;45.28;;;4.30;99.90;;;;;;5097792;28;20429;-66
2022/03/25 02:00:59;;;;;;;108.30;48.35;;;4.30;99.90;;;;;;5095414;28;20071;-66
2022/03/25 02:03:26;;;;;;;141.80;50.63;;;4.30;99.90;;;;;;5096297;28;20082;-66
2022/03/25 02:05:51;;;;;;;92.45;50.85;;;4.30;99.90;;;;;;5098086;28;20478;-66
2022/03/25 02:08:20;;;;;;;72.20;50.28;;;4.20;99.90;;;;;;5114363;27;20031;-66
2022/03/25 02:10:45;;;;;;;70.93;51.17;;;3.50;99.90;;;;;;5128578;27;20051;-66
2022/03/25 02:13:12;;;;;;;160.20;51.47;;;4.20;99.90;;;;;;5093445;28;20040;-66
2022/03/25 02:15:40;;;;;;;83.18;48.13;;;4.20;99.90;;;;;;5095547;28;20067;-66
2022/03/25 02:18:09;;;;;;;69.53;47.50;;;4.20;99.90;;;;;;5101359;28;20063;-66
2022/03/25 02:20:35;;;;;;;62.92;45.83;;;4.10;99.90;;;;;;5107740;27;20103;-66
2022/03/25 02:23:02;;;;;;;64.95;46.17;;;4.10;99.90;;;;;;5107292;27;20676;-66
2022/03/25 02:25:29;;;;;;;65.47;47.97;;;4.00;99.90;;;;;;5106181;28;20048;-66
2022/03/25 02:27:58;;;;;;;62.40;43.50;;;4.00;99.90;;;;;;5102194;28;20047;-66
2022/03/25 02:30:24;;;;;;;62.70;46.90;;;4.00;99.90;;;;;;5132350;27;20045;-66
2022/03/25 02:32:49;;;;;;;72.35;46.55;;;4.00;99.90;;;;;;5106403;28;20043;-66
2022/03/25 02:35:15;;;;;;;78.78;47.72;;;4.00;99.90;;;;;;5104586;28;20044;-66
2022/03/25 02:37:41;;;;;;;302.05;42.58;;;4.00;99.90;;;;;;5105864;28;20482;-66
2022/03/25 02:40:07;;;;;;;55.42;38.97;;;3.90;99.90;;;;;;5103536;27;20043;-66
2022/03/25 02:42:32;;;;;;;56.78;45.72;;;3.80;99.90;;;;;;5106797;27;20043;-66
2022/03/25 02:44:58;;;;;;;53.40;44.63;;;3.80;99.90;;;;;;5100600;28;20533;-66
2022/03/25 02:47:23;;;;;;;56.33;43.30;;;3.80;99.90;;;;;;5101977;28;20044;-66
2022/03/25 02:49:51;;;;;;;49.78;41.35;;;3.70;99.90;;;;;;5104288;28;20044;-66
2022/03/25 02:52:16;;;;;;;47.42;38.03;;;3.70;99.90;;;;;;5102376;27;20446;-66
2022/03/25 02:54:42;;;;;;;72.82;37.88;;;3.70;99.90;;;;;;5103146;28;20048;-66
2022/03/25 02:57:08;;;;;;;45.28;35.67;;;3.60;99.90;;;;;;5092197;28;20039;-66
2022/03/25 02:59:33;;;;;;;52.20;36.25;;;3.60;99.90;;;;;;5106153;28;20069;-66
2022/03/25 03:01:59;;;;;;;87.85;35.03;;;3.50;99.90;;;;;;5105235;28;20032;-66
2022/03/25 03:04:25;;;;;;;84.63;35.72;;;3.50;99.90;;;;;;5106179;27;20043;-66
2022/03/25 03:06:51;;;;;;;169.45;37.40;;;3.40;99.90;;;;;;5105096;27;20063;-66
2022/03/25 03:09:17;;;;;;;124.00;37.38;;;3.30;99.90;;;;;;5102309;27;20063;-65
2022/03/25 03:11:43;;;;;;;57.63;34.50;;;3.30;99.90;;;;;;5104316;28;20036;-65
2022/03/25 03:14:08;;;;;;;57.70;35.10;;;3.30;99.90;;;;;;5089008;28;20478;-65
2022/03/25 03:16:34;;;;;;;50.17;30.42;;;3.20;99.90;;;;;;5101911;28;20401;-66
2022/03/25 03:18:59;;;;;;;68.40;32.10;;;3.30;99.90;;;;;;5102635;28;20089;-66
2022/03/25 03:21:25;;;;;;;71.10;32.45;;;3.30;99.90;;;;;;5134635;27;20112;-65
2022/03/25 03:23:54;;;;;;;125.07;32.15;;;3.20;99.90;;;;;;5103595;27;20031;-67
2022/03/25 03:26:20;;;;;;;131.23;34.05;;;3.20;99.90;;;;;;5108781;28;20047;-66
2022/03/25 03:28:46;;;;;;;115.72;32.65;;;3.40;99.90;;;;;;5104923;27;20058;-66
2022/03/25 03:31:12;;;;;;;105.90;31.75;;;3.20;99.90;;;;;;5100082;28;20043;-66
2022/03/25 03:33:38;;;;;;;115.22;31.92;;;3.20;99.90;;;;;;5102346;28;20080;-66
2022/03/25 03:36:04;;;;;;;101.00;30.10;;;3.20;99.90;;;;;;5104540;28;20486;-66
2022/03/25 03:38:30;;;;;;;94.57;30.50;;;3.20;99.90;;;;;;5101021;28;20611;-66
2022/03/25 03:40:55;;;;;;;130.30;30.15;;;3.30;99.90;;;;;;5101506;28;20177;-66
2022/03/25 03:43:22;;;;;;;169.55;31.85;;;3.00;99.90;;;;;;5133811;27;20028;-66
2022/03/25 03:45:47;;;;;;;127.55;31.08;;;3.10;99.90;;;;;;5102648;28;20043;-66
2022/03/25 03:48:13;;;;;;;169.98;32.08;;;3.00;99.90;;;;;;5102012;27;20044;-66
2022/03/25 03:50:39;;;;;;;139.43;30.17;;;3.00;99.90;;;;;;5102027;28;20036;-66
2022/03/25 03:53:05;;;;;;;78.10;29.67;;;3.00;99.90;;;;;;5104585;28;20036;-66
2022/03/25 03:55:30;;;;;;;61.60;27.58;;;2.90;99.90;;;;;;5131834;27;20128;-66
2022/03/25 03:57:57;;;;;;;158.48;30.67;;;2.90;99.90;;;;;;5102807;28;20028;-66
2022/03/25 04:00:24;;;;;;;267.77;31.67;;;2.90;99.90;;;;;;5101894;28;20154;-66
2022/03/25 04:02:51;;;;;;;371.60;34.72;;;2.80;99.90;;;;;;5099968;28;20047;-66
2022/03/25 04:05:16;;;;;;;149.80;31.50;;;2.80;99.90;;;;;;5101291;28;20060;-66
2022/03/25 04:07:49;;;;;;;143.65;30.30;;;2.80;99.90;;;;;;5104838;28;20041;-66
2022/03/25 04:10:16;;;;;;;283.63;33.15;;;2.80;99.90;;;;;;5102845;27;20598;-66
2022/03/25 04:12:42;;;;;;;239.35;33.08;;;2.80;99.90;;;;;;5097285;28;21732;-66
2022/03/25 04:15:10;;;;;;;200.68;30.58;;;2.70;99.90;;;;;;5097375;28;20458;-66
2022/03/25 04:17:40;;;;;;;99.65;29.25;;;2.70;99.90;;;;;;5131655;27;20036;-66
2022/03/25 04:20:07;;;;;;;117.57;25.38;;;2.70;99.90;;;;;;5102096;28;20559;-66
2022/03/25 04:22:33;;;;;;;66.82;23.77;;;2.60;99.90;;;;;;5100841;28;20039;-66
2022/03/25 04:24:59;;;;;;;126.80;27.17;;;2.60;99.90;;;;;;5106269;28;20031;-66
2022/03/25 04:27:25;;;;;;;84.10;25.48;;;2.60;99.90;;;;;;5101959;28;20066;-66
2022/03/25 04:29:50;;;;;;;147.60;27.92;;;2.50;99.90;;;;;;5102363;28;20454;-66
2022/03/25 04:32:16;;;;;;;100.28;28.25;;;2.50;99.90;;;;;;5092861;28;20046;-66
2022/03/25 04:34:42;;;;;;;117.10;28.45;;;2.50;99.90;;;;;;5101490;28;20130;-66
2022/03/25 04:37:09;;;;;;;123.82;29.50;;;2.50;99.90;;;;;;5101492;28;20064;-66
2022/03/25 04:39:35;;;;;;;106.63;30.63;;;2.60;99.90;;;;;;5097292;27;20036;-66
2022/03/25 04:42:01;;;;;;;120.32;30.20;;;2.60;99.90;;;;;;5078270;27;20090;-66
2022/03/25 04:44:27;;;;;;;161.77;30.10;;;2.60;99.90;;;;;;5095315;27;20084;-66
2022/03/25 04:46:54;;;;;;;106.57;29.80;;;2.60;99.90;;;;;;5110813;27;20127;-66
2022/03/25 04:49:20;;;;;;;59.80;28.88;;;2.50;99.90;;;;;;5095210;28;20056;-66
2022/03/25 04:51:45;;;;;;;53.78;28.45;;;2.50;99.90;;;;;;5124635;27;20036;-66
2022/03/25 04:54:11;;;;;;;58.08;28.30;;;2.70;99.90;;;;;;5094205;27;20409;-66
2022/03/25 04:56:38;;;;;;;100.38;32.03;;;2.50;99.90;;;;;;5123664;27;20431;-66
2022/03/25 04:59:03;;;;;;;76.82;30.27;;;2.40;99.90;;;;;;5123348;27;20075;-66
2022/03/25 05:01:29;;;;;;;87.40;28.20;;;2.40;99.90;;;;;;5092761;27;20545;-66
2022/03/25 05:03:55;;;;;;;56.08;25.10;;;2.40;99.90;;;;;;5124383;27;20032;-66
2022/03/25 05:06:21;;;;;;;71.05;26.95;;;2.30;99.90;;;;;;5098414;27;20424;-66
2022/03/25 05:08:46;;;;;;;163.60;29.30;;;2.30;99.90;;;;;;5094869;27;20036;-66
2022/03/25 05:11:12;;;;;;;65.32;26.90;;;2.30;99.90;;;;;;5092772;27;21749;-66
2022/03/25 05:13:38;;;;;;;51.90;26.33;;;2.20;99.90;;;;;;5095021;27;20047;-66
2022/03/25 05:16:04;;;;;;;51.70;28.98;;;2.10;99.90;;;;;;5092804;27;20039;-66
2022/03/25 05:18:30;;;;;;;42.53;27.70;;;2.10;99.90;;;;;;5112425;27;20645;-66
2022/03/25 05:20:56;;;;;;;65.85;30.98;;;2.10;99.90;;;;;;5091238;28;20051;-66
2022/03/25 05:23:23;;;;;;;62.33;30.38;;;2.10;99.90;;;;;;5096680;27;20119;-66
2022/03/25 05:25:48;;;;;;;97.82;30.33;;;2.20;99.90;;;;;;5103610;28;20043;-66
2022/03/25 05:28:16;;;;;;;38.33;25.45;;;2.10;99.90;;;;;;5098399;28;20039;-66
2022/03/25 05:30:42;;;;;;;30.30;26.25;;;2.00;99.90;;;;;;5128905;27;20036;-66
2022/03/25 05:33:08;;;;;;;67.78;26.13;;;2.00;99.90;;;;;;5096259;28;20044;-66
2022/03/25 05:35:34;;;;;;;94.30;28.92;;;2.00;99.90;;;;;;5098736;28;20046;-66
2022/03/25 05:37:59;;;;;;;102.57;28.70;;;2.00;99.90;;;;;;5100673;27;20112;-65
2022/03/25 05:40:26;;;;;;;192.07;33.33;;;2.00;99.90;;;;;;5102291;27;20540;-66
2022/03/25 05:42:53;;;;;;;133.60;29.25;;;1.90;99.90;;;;;;5097704;28;20040;-66
2022/03/25 05:45:20;;;;;;;117.38;30.35;;;1.90;99.90;;;;;;5099365;28;20128;-66
2022/03/25 05:47:46;;;;;;;132.00;30.08;;;1.90;99.90;;;;;;5100657;28;20055;-65
2022/03/25 05:50:12;;;;;;;66.43;28.73;;;1.90;99.90;;;;;;5097541;28;20040;-66
2022/03/25 05:52:41;;;;;;;82.25;30.08;;;1.90;99.90;;;;;;5092075;28;20390;-66
2022/03/25 05:55:09;;;;;;;48.95;29.38;;;1.90;99.90;;;;;;5093634;28;20044;-66
2022/03/25 05:57:34;;;;;;;34.20;28.38;;;2.00;99.90;;;;;;5098853;28;20055;-65
2022/03/25 06:00:01;;;;;;;33.30;27.00;;;2.30;99.90;;;;;;5101781;28;20035;-66
2022/03/25 06:02:27;;;;;;;34.35;28.17;;;2.40;99.90;;;;;;5092383;28;20039;-66
2022/03/25 06:04:53;;;;;;;28.17;23.80;;;2.70;99.90;;;;;;5098472;28;20052;-65
2022/03/25 06:07:19;;;;;;;26.70;23.90;;;3.20;99.90;;;;;;5129885;27;20410;-66
2022/03/25 06:09:45;;;;;;;24.67;22.10;;;3.70;99.90;;;;;;5092981;28;20044;-66
2022/03/25 06:12:11;;;;;;;24.05;21.45;;;4.20;99.90;;;;;;5128123;27;20047;-66
2022/03/25 06:14:38;;;;;;;22.20;19.85;;;4.90;99.90;;;;;;5094737;28;20041;-66
2022/03/25 06:17:05;;;;;;;21.73;19.30;;;5.60;99.90;;;;;;5094967;28;20759;-65
2022/03/25 06:19:32;;;;;;;21.48;19.20;;;6.20;99.90;;;;;;5098527;28;20036;-66
2022/03/25 06:21:58;;;;;;;21.00;18.98;;;6.80;99.90;;;;;;5093098;28;20040;-66
2022/03/25 06:24:24;;;;;;;20.17;18.17;;;7.60;99.90;;;;;;5093428;28;20143;-66
2022/03/25 06:26:50;;;;;;;19.00;17.00;;;8.20;99.90;;;;;;5127987;27;20044;-66
2022/03/25 06:29:16;;;;;;;19.27;17.27;;;9.00;99.90;;;;;;5098111;28;20035;-66
2022/03/25 06:31:42;;;;;;;17.30;15.70;;;9.70;99.90;;;;;;5093767;28;20035;-66
2022/03/25 06:34:07;;;;;;;17.52;15.73;;;10.40;99.90;;;;;;5127400;27;20079;-66
2022/03/25 06:36:33;;;;;;;17.73;14.25;;;11.10;99.30;;;;;;5128360;27;21782;-66
2022/03/25 06:38:59;;;;;;;16.73;15.18;;;11.80;96.80;;;;;;5094627;28;20046;-66
2022/03/25 06:41:25;;;;;;;18.70;16.55;;;12.40;93.10;;;;;;5129982;27;20079;-67
2022/03/25 06:43:50;;;;;;;19.77;16.15;;;13.00;91.20;;;;;;5093346;28;20032;-67
2022/03/25 06:46:17;;;;;;;19.85;14.95;;;13.60;89.80;;;;;;5133662;27;20106;-67
2022/03/25 06:48:44;;;;;;;18.08;15.10;;;14.20;85.30;;;;;;5097707;28;20040;-67
2022/03/25 06:51:10;;;;;;;17.55;15.60;;;14.70;81.60;;;;;;5099192;28;20117;-67
2022/03/25 06:53:36;;;;;;;18.38;16.58;;;15.30;77.60;;;;;;5099282;28;20421;-67
2022/03/25 06:56:02;;;;;;;22.20;16.77;;;15.70;72.90;;;;;;5099584;28;20044;-67
2022/03/25 06:58:29;;;;;;;22.35;17.63;;;15.90;69.10;;;;;;5098580;28;20748;-67
2022/03/25 07:00:55;;;;;;;30.73;20.73;;;15.90;69.10;;;;;;5131238;27;20031;-67
2022/03/25 07:03:21;;;;;;;23.30;20.75;;;16.00;68.90;;;;;;5103857;28;20085;-67
2022/03/25 07:05:46;;;;;;;26.65;23.83;;;15.80;68.20;;;;;;5102361;28;20050;-66
2022/03/25 07:08:13;;;;;;;29.92;24.73;;;15.40;69.00;;;;;;5106596;27;20126;-67
2022/03/25 07:10:38;;;;;;;31.40;27.75;;;15.10;70.60;;;;;;5130543;27;20040;-67
2022/03/25 07:13:05;;;;;;;29.00;24.92;;;15.00;72.00;;;;;;5101242;28;20054;-66
2022/03/25 07:15:30;;;;;;;26.77;23.98;;;15.00;72.90;;;;;;5104902;28;20039;-66
2022/03/25 07:17:56;;;;;;;29.85;26.75;;;15.10;73.40;;;;;;5131128;27;20574;-67
2022/03/25 07:20:25;;;;;;;35.13;30.52;;;15.20;72.90;;;;;;5102694;28;20047;-67
2022/03/25 07:22:52;;;;;;;36.03;32.13;;;15.40;74.50;;;;;;5105340;27;20040;-67
2022/03/25 07:25:18;;;;;;;37.85;33.33;;;15.50;72.50;;;;;;5100242;28;20043;-67
2022/03/25 07:27:46;;;;;;;41.13;33.80;;;15.50;71.40;;;;;;5101573;28;20119;-67
2022/03/25 07:30:13;;;;;;;40.97;34.50;;;15.30;71.80;;;;;;5101147;28;20090;-67
2022/03/25 07:32:40;;;;;;;38.58;33.45;;;14.80;73.40;;;;;;5100010;28;20131;-67
2022/03/25 07:35:06;;;;;;;40.30;34.00;;;14.30;74.90;;;;;;5128222;27;20215;-67
2022/03/25 07:37:32;;;;;;;40.78;34.70;;;13.80;76.70;;;;;;5098698;28;20541;-67
2022/03/25 07:39:58;;;;;;;39.58;33.65;;;13.40;79.60;;;;;;5100323;28;20103;-67
2022/03/25 07:42:24;;;;;;;38.17;32.90;;;13.10;80.50;;;;;;5098555;28;20032;-67
2022/03/25 07:44:50;;;;;;;38.72;33.80;;;12.80;82.00;;;;;;5099563;28;20154;-67
2022/03/25 07:47:16;;;;;;;39.85;32.28;;;12.60;82.50;;;;;;5101138;28;20489;-67
2022/03/25 07:49:43;;;;;;;37.78;33.45;;;12.30;82.70;;;;;;5095233;28;20031;-67
2022/03/25 07:52:10;;;;;;;36.25;31.58;;;12.10;84.50;;;;;;5099508;28;20040;-67
2022/03/25 07:54:36;;;;;;;36.42;29.88;;;11.80;85.00;;;;;;5097574;28;20035;-67
2022/03/25 07:57:02;;;;;;;45.40;33.00;;;11.60;85.70;;;;;;5104276;28;20031;-67
2022/03/25 07:59:29;;;;;;;38.28;30.00;;;11.50;88.90;;;;;;5097440;28;20039;-66
2022/03/25 08:01:56;;;;;;;38.78;31.33;;;11.30;90.30;;;;;;5095067;28;20672;-67
2022/03/25 08:04:24;;;;;;;38.38;30.98;;;11.20;91.70;;;;;;5094460;28;20067;-67
2022/03/25 08:06:54;;;;;;;39.60;30.60;;;11.10;92.20;;;;;;5099059;28;20044;-67
2022/03/25 08:09:20;;;;;;;38.65;31.95;;;11.20;92.90;;;;;;5096901;28;20169;-67
2022/03/25 08:11:46;;;;;;;38.83;32.15;;;11.20;93.30;;;;;;5097716;28;20038;-66
2022/03/25 08:14:13;;;;;;;41.03;31.30;;;11.20;93.50;;;;;;5093713;28;20036;-67
2022/03/25 08:16:39;;;;;;;47.90;31.10;;;11.20;93.50;;;;;;5098188;28;20039;-67
2022/03/25 08:19:05;;;;;;;40.13;28.95;;;11.20;94.00;;;;;;5097023;28;20028;-66
2022/03/25 08:21:32;;;;;;;37.55;28.00;;;11.20;93.90;;;;;;5097203;27;20181;-66
2022/03/25 08:29:27;;;;;;;37.47;28.75;;;11.30;93.50;;;;;;5094720;28;20055;-66
2022/03/25 08:31:54;;;;;;;36.20;27.88;;;11.40;94.60;;;;;;5095746;28;20047;-67
2022/03/25 08:34:25;;;;;;;31.63;25.40;;;11.60;95.10;;;;;;5094928;28;20509;-67
2022/03/25 08:36:50;;;;;;;37.35;26.15;;;11.80;93.70;;;;;;5098530;28;20461;-67
2022/03/25 08:39:17;;;;;;;38.03;23.38;;;12.00;92.50;;;;;;5094508;28;20123;-67
2022/03/25 08:41:43;;;;;;;35.80;25.63;;;12.10;92.10;;;;;;5097331;27;20032;-67
2022/03/25 08:44:10;;;;;;;34.25;22.25;;;12.20;92.60;;;;;;5098232;27;20062;-67
2022/03/25 08:46:37;;;;;;;34.40;23.90;;;12.40;88.90;;;;;;5094633;28;20118;-67
2022/03/25 08:49:03;;;;;;;29.45;22.25;;;12.60;88.90;;;;;;5100813;28;20062;-67
2022/03/25 08:51:29;;;;;;;27.85;20.85;;;12.80;87.50;;;;;;5098008;28;20051;-67
2022/03/25 08:53:56;;;;;;;28.63;21.25;;;13.00;86.70;;;;;;5095306;28;20049;-67
2022/03/25 08:56:24;;;;;;;26.77;18.85;;;13.20;84.40;;;;;;5129997;27;20044;-67
2022/03/25 08:58:54;;;;;;;31.42;20.55;;;13.30;81.10;;;;;;5096701;28;20051;-67
2022/03/25 09:01:24;;;;;;;30.30;22.17;;;13.50;79.80;;;;;;5134327;27;20085;-67
2022/03/25 09:03:50;;;;;;;32.17;20.80;;;13.60;78.20;;;;;;5096246;28;21031;-67
2022/03/25 09:06:17;;;;;;;32.95;21.48;;;13.60;78.30;;;;;;5094816;28;20119;-67
2022/03/25 09:08:42;;;;;;;30.98;22.13;;;13.70;79.30;;;;;;5096500;27;20039;-67
2022/03/25 09:11:09;;;;;;;27.70;21.55;;;13.80;76.50;;;;;;5099144;28;20028;-67
2022/03/25 09:13:36;;;;;;;32.10;22.65;;;13.90;76.30;;;;;;5094447;28;20067;-67
2022/03/25 09:16:02;;;;;;;31.95;22.67;;;14.20;74.10;;;;;;5098767;28;20054;-67
2022/03/25 09:18:27;;;;;;;28.48;21.58;;;14.20;74.80;;;;;;5128212;27;20032;-67
2022/03/25 09:20:53;;;;;;;31.52;24.02;;;14.30;75.00;;;;;;5098980;28;20040;-67
2022/03/25 09:23:19;;;;;;;35.53;24.73;;;14.30;74.70;;;;;;5125243;27;20035;-67
2022/03/25 09:25:45;;;;;;;34.30;23.80;;;14.30;76.50;;;;;;5128259;27;20040;-67
2022/03/25 09:28:10;;;;;;;36.85;23.50;;;14.50;75.40;;;;;;5099756;28;20046;-67
2022/03/25 09:30:36;;;;;;;29.27;24.05;;;14.40;74.00;;;;;;5098337;28;20068;-67
2022/03/25 09:33:04;;;;;;;29.63;23.30;;;14.40;72.60;;;;;;5098347;28;20031;-67
2022/03/25 09:35:30;;;;;;;34.35;25.13;;;14.20;72.70;;;;;;5097192;28;20054;-67
2022/03/25 09:37:55;;;;;;;31.58;23.80;;;14.30;73.50;;;;;;5095546;28;20036;-67
2022/03/25 09:40:26;;;;;;;32.80;22.70;;;14.20;72.40;;;;;;5094915;28;20036;-67
2022/03/25 09:42:55;;;;;;;31.52;22.95;;;14.30;72.10;;;;;;5098277;28;20119;-67
2022/03/25 09:45:22;;;;;;;28.55;23.42;;;14.10;70.60;;;;;;5099947;28;20082;-67
2022/03/25 09:47:49;;;;;;;30.50;21.95;;;14.10;73.50;;;;;;5095149;28;20047;-67
2022/03/25 09:50:17;;;;;;;30.63;21.88;;;14.20;71.90;;;;;;5098256;28;20084;-67
2022/03/25 09:52:44;;;;;;;32.30;22.13;;;14.40;73.10;;;;;;5094025;28;20028;-67
2022/03/25 09:55:11;;;;;;;28.75;20.40;;;14.50;72.80;;;;;;5096889;28;20040;-67
2022/03/25 09:57:38;;;;;;;31.08;23.20;;;14.70;72.10;;;;;;5095648;28;21680;-67
2022/03/25 10:00:06;;;;;;;37.08;22.52;;;14.90;70.70;;;;;;5099765;28;20108;-67
2022/03/25 10:02:32;;;;;;;27.00;20.08;;;15.00;70.80;;;;;;5127781;27;20045;-67
2022/03/25 10:04:58;;;;;;;29.98;22.67;;;15.00;71.30;;;;;;5096190;28;20024;-67
2022/03/25 10:07:34;;;;;;;30.25;22.15;;;15.00;70.40;;;;;;5098910;28;20089;-67
2022/03/25 10:10:16;;;;;;;26.63;20.88;;;15.20;71.00;;;;;;5094584;28;20033;-67
2022/03/25 10:12:46;;;;;;;28.75;20.65;;;15.20;70.70;;;;;;5094656;28;20054;-67
2022/03/25 10:15:20;;;;;;;28.70;19.90;;;15.30;69.80;;;;;;5092900;28;20054;-67
2022/03/25 10:17:52;;;;;;;24.83;19.53;;;15.50;69.50;;;;;;5094642;28;20054;-67
2022/03/25 10:20:22;;;;;;;27.50;18.98;;;15.50;67.80;;;;;;5093924;28;20040;-67
2022/03/25 10:23:15;;;;;;;24.17;16.80;;;15.60;67.00;;;;;;5096416;28;20048;-67
2022/03/25 10:25:55;;;;;;;21.95;18.23;;;15.80;65.30;;;;;;5096929;28;20055;-67
2022/03/25 10:28:29;;;;;;;25.15;18.35;;;15.90;62.90;;;;;;5129812;27;20054;-67
2022/03/25 10:30:57;;;;;;;25.95;18.13;;;15.90;62.60;;;;;;5096168;28;20039;-67
2022/03/25 10:33:36;;;;;;;26.50;18.45;;;15.80;62.30;;;;;;5093973;28;20203;-67
2022/03/25 10:36:07;;;;;;;23.35;17.15;;;15.80;64.00;;;;;;5094021;28;20494;-66
2022/03/25 10:38:43;;;;;;;26.75;17.35;;;15.90;64.20;;;;;;5096046;28;20100;-66
2022/03/25 10:41:11;;;;;;;26.17;17.13;;;16.00;62.10;;;;;;5100163;28;20118;-67
2022/03/25 10:43:49;;;;;;;24.42;18.15;;;15.90;62.10;;;;;;5097962;28;20494;-67
2022/03/25 10:46:26;;;;;;;30.55;17.60;;;15.90;61.80;;;;;;5128995;27;20056;-67
2022/03/25 10:48:53;;;;;;;23.55;16.05;;;16.10;61.90;;;;;;5098310;28;20071;-67
2022/03/25 10:51:19;;;;;;;24.80;16.50;;;16.10;61.40;;;;;;5100275;28;20043;-67
2022/03/25 10:53:47;;;;;;;23.58;16.88;;;16.20;60.30;;;;;;5097831;28;20048;-67
2022/03/25 10:56:13;;;;;;;23.45;16.33;;;16.20;59.70;;;;;;5114906;27;20044;-67
2022/03/25 10:58:51;;;;;;;23.85;18.15;;;16.20;59.90;;;;;;5093974;28;20117;-67
2022/03/25 11:01:17;;;;;;;26.23;19.23;;;16.40;60.10;;;;;;5101298;28;20063;-67
2022/03/25 11:03:43;;;;;;;27.52;20.52;;;16.40;61.30;;;;;;5098643;28;20071;-67
2022/03/25 11:06:13;;;;;;;31.08;21.15;;;16.60;62.00;;;;;;5099584;28;21449;-67
2022/03/25 11:08:39;;;;;;;28.55;20.60;;;16.80;62.10;;;;;;5132932;27;20138;-67
2022/03/25 11:11:07;;;;;;;28.30;19.98;;;16.80;60.50;;;;;;5100013;28;20130;-67
2022/03/25 11:13:34;;;;;;;25.65;19.40;;;16.80;61.00;;;;;;5101414;28;20064;-68
2022/03/25 11:16:02;;;;;;;24.95;20.33;;;16.90;60.10;;;;;;5098634;28;20047;-67
2022/03/25 11:18:28;;;;;;;31.75;20.65;;;16.90;61.20;;;;;;5096896;28;20048;-67
2022/03/25 11:20:58;;;;;;;28.23;21.42;;;17.10;61.00;;;;;;5098068;28;20032;-67
2022/03/25 11:23:44;;;;;;;30.50;21.35;;;17.10;60.20;;;;;;5127482;27;20052;-67
2022/03/25 11:26:13;;;;;;;31.27;22.00;;;17.10;59.30;;;;;;5083947;28;20024;-67
2022/03/25 11:28:40;;;;;;;29.85;20.10;;;17.00;60.10;;;;;;5095298;27;20060;-66
2022/03/25 11:31:10;;;;;;;34.65;22.27;;;17.00;59.50;;;;;;5103677;27;20423;-67
2022/03/25 11:34:09;;;;;;;28.65;20.60;;;17.10;60.20;;;;;;5097462;28;20040;-66
2022/03/25 11:36:40;;;;;;;36.75;19.95;;;17.20;60.20;;;;;;5097762;28;20510;-67
2022/03/25 11:39:26;;;;;;;31.90;20.45;;;17.40;59.90;;;;;;5098326;27;20052;-67
2022/03/25 11:42:00;;;;;;;29.48;22.15;;;17.70;59.60;;;;;;5099585;28;20498;-67
2022/03/25 11:44:26;;;;;;;33.70;22.13;;;17.80;60.20;;;;;;5100116;28;20053;-67
2022/03/25 11:47:01;;;;;;;33.63;22.35;;;17.70;58.50;;;;;;5094542;28;20048;-66
2022/03/25 11:49:31;;;;;;;30.88;21.27;;;17.70;60.10;;;;;;5094919;27;20532;-67
2022/03/25 11:52:18;;;;;;;27.40;20.08;;;17.70;58.00;;;;;;5130605;27;20543;-67
2022/03/25 11:54:44;;;;;;;27.08;20.20;;;17.70;60.50;;;;;;5095774;27;20055;-67
2022/03/25 11:57:26;;;;;;;30.40;20.27;;;17.80;59.60;;;;;;5099509;28;20035;-67
2022/03/25 11:59:55;;;;;;;25.75;21.25;;;17.90;57.50;;;;;;5099009;27;20181;-66
2022/03/25 12:02:25;;;;;;;28.05;19.65;;;17.80;58.50;;;;;;5097393;28;20040;-66
2022/03/25 12:04:51;;;;;;;28.35;20.27;;;17.80;58.50;;;;;;5097083;28;20047;-67
2022/03/25 12:07:17;;;;;;;24.80;19.50;;;17.70;59.10;;;;;;5094110;28;20055;-66
2022/03/25 12:09:46;;;;;;;31.35;21.95;;;17.80;61.20;;;;;;5096445;28;20067;-66
2022/03/25 12:12:13;;;;;;;29.77;19.92;;;17.90;59.10;;;;;;5096681;28;20035;-67
2022/03/25 12:15:05;;;;;;;27.00;19.17;;;18.10;60.60;;;;;;5095147;27;20033;-67
2022/03/25 12:17:30;;;;;;;32.35;21.92;;;18.30;57.10;;;;;;5098955;28;20048;-66
2022/03/25 12:19:57;;;;;;;35.75;20.88;;;18.40;58.60;;;;;;5097671;28;20386;-67
2022/03/25 12:22:23;;;;;;;30.55;20.17;;;18.40;57.80;;;;;;5095821;28;20125;-67
2022/03/25 12:24:51;;;;;;;38.40;22.05;;;18.40;57.60;;;;;;5095698;28;20061;-67
2022/03/25 12:27:18;;;;;;;27.15;20.40;;;18.50;56.70;;;;;;5094724;28;20082;-67
2022/03/25 12:29:51;;;;;;;30.67;21.15;;;18.40;57.70;;;;;;5093548;28;20036;-67
2022/03/25 12:32:18;;;;;;;28.08;20.65;;;18.30;56.50;;;;;;5096094;28;21153;-67
2022/03/25 12:35:02;;;;;;;31.42;19.13;;;18.30;56.30;;;;;;5095683;28;20044;-67
2022/03/25 12:37:34;;;;;;;24.13;19.38;;;18.30;57.10;;;;;;5094952;28;20063;-67